Time;durP1;ratioP1;P1;durP2;ratioP2;P2;SDS_P1;SDS_P2;PMS_P1;PMS_P2;Temp;Humidity;BMP_temperature;BMP_pressure;BME280_temperature;BME280_humidity;BME280_pressure;Samples;Min_cycle;Max_cycle;Signal;HPM_P1;HPM_P2
2023/10/13 00:00:34;;;;;;;5.90;1.08;;;;;;;9.42;73.68;98403.56;5132666;27;20056;-63
2023/10/13 00:03:00;;;;;;;4.65;1.08;;;;;;;9.39;73.57;98406.50;5133297;27;20027;-63
2023/10/13 00:05:33;;;;;;;7.53;1.30;;;;;;;9.34;73.70;98413.13;5131098;27;20061;-61
2023/10/13 00:08:00;;;;;;;7.03;1.17;;;;;;;9.32;73.48;98415.13;5130781;28;20031;-62
2023/10/13 00:10:30;;;;;;;5.90;1.02;;;;;;;9.31;73.38;98418.78;5133120;27;20350;-62
2023/10/13 00:13:11;;;;;;;5.38;1.05;;;;;;;9.04;73.58;98375.09;5132829;27;20361;-61
2023/10/13 00:18:27;;;;;;;3.72;0.90;;;;;;;9.43;72.37;98421.25;5133378;27;20031;-64
2023/10/13 00:20:56;;;;;;;4.00;1.00;;;;;;;9.42;72.10;98420.41;5132410;27;20474;-62
2023/10/13 00:23:23;;;;;;;5.13;0.90;;;;;;;9.17;71.95;98381.94;5132889;27;20035;-63
2023/10/13 00:25:56;;;;;;;5.60;1.15;;;;;;;9.32;71.93;98406.28;5129923;28;20095;-63
2023/10/13 00:28:35;;;;;;;6.57;1.38;;;;;;;9.36;72.02;98420.16;5133475;27;20038;-63
2023/10/13 00:31:10;;;;;;;6.35;0.98;;;;;;;9.31;71.98;98433.97;5136159;27;20053;-65
2023/10/13 00:33:37;;;;;;;2.00;0.80;;;;;;;9.35;71.57;98430.03;5136837;27;20051;-63
2023/10/13 00:36:05;;;;;;;4.10;1.10;;;;;;;9.31;71.65;98429.47;5133444;27;20118;-63
2023/10/13 00:38:31;;;;;;;5.00;1.13;;;;;;;9.29;71.76;98430.63;5136037;27;20096;-63
2023/10/13 00:41:03;;;;;;;6.32;1.17;;;;;;;9.20;71.62;98416.34;5133942;27;20159;-64
2023/10/13 00:43:32;;;;;;;5.78;1.08;;;;;;;9.28;71.57;98432.44;5135260;27;20102;-62
2023/10/13 00:48:42;;;;;;;4.68;0.80;;;;;;;9.45;71.53;98445.97;5136136;27;20034;-65
2023/10/13 00:51:18;;;;;;;3.17;0.80;;;;;;;9.40;71.17;98427.72;5136393;27;20064;-64
2023/10/13 00:53:44;;;;;;;4.10;1.02;;;;;;;9.55;70.88;98436.06;5135828;27;20023;-63
2023/10/13 00:56:21;;;;;;;3.47;0.90;;;;;;;9.66;70.34;98439.50;5135453;27;20395;-64
2023/10/13 00:58:49;;;;;;;6.60;1.52;;;;;;;9.53;69.43;98405.97;5134706;27;20482;-65
2023/10/13 01:01:18;;;;;;;5.40;1.20;;;;;;;9.80;69.18;98452.31;5095099;28;20032;-64
2023/10/13 01:03:50;;;;;;;6.18;1.63;;;;;;;9.89;69.54;98437.22;5094570;28;20036;-65
2023/10/13 01:06:19;;;;;;;5.05;1.20;;;;;;;9.93;68.94;98451.13;5121311;27;20020;-64
2023/10/13 01:08:50;;;;;;;7.43;1.00;;;;;;;9.95;68.99;98443.78;5135784;27;20035;-65
2023/10/13 01:11:19;;;;;;;4.65;1.02;;;;;;;10.02;68.38;98445.69;5132272;27;20028;-64
2023/10/13 01:13:50;;;;;;;5.63;1.35;;;;;;;10.02;67.89;98452.84;5135503;27;20514;-63
2023/10/13 01:16:17;;;;;;;4.20;0.88;;;;;;;10.05;67.93;98447.19;5135303;27;20398;-63
2023/10/13 01:18:49;;;;;;;7.82;1.20;;;;;;;10.08;67.98;98451.41;5135901;27;20054;-64
2023/10/13 01:21:26;;;;;;;7.05;1.50;;;;;;;10.17;67.24;98456.66;5135381;27;20080;-65
2023/10/13 01:23:52;;;;;;;3.63;0.85;;;;;;;10.19;67.63;98454.69;5135078;27;20031;-65
2023/10/13 01:26:21;;;;;;;5.43;0.98;;;;;;;10.20;66.94;98456.34;5132897;27;20449;-63
2023/10/13 01:28:48;;;;;;;5.82;1.00;;;;;;;9.98;67.11;98424.75;5134530;27;20446;-64
2023/10/13 01:31:27;;;;;;;6.93;1.40;;;;;;;10.24;66.80;98461.38;5132957;27;20037;-63
2023/10/13 01:33:54;;;;;;;2.85;0.77;;;;;;;10.26;67.28;98457.56;5134882;27;20118;-64
2023/10/13 01:36:21;;;;;;;4.35;0.90;;;;;;;10.08;67.15;98425.50;5134768;27;20331;-63
2023/10/13 01:38:48;;;;;;;6.95;1.48;;;;;;;10.27;66.63;98455.72;5134450;27;20417;-64
2023/10/13 01:41:15;;;;;;;5.03;1.13;;;;;;;10.32;66.95;98469.47;5133360;27;20034;-64
2023/10/13 01:43:41;;;;;;;7.28;1.35;;;;;;;10.31;66.83;98475.81;5134843;27;20113;-64
2023/10/13 01:46:09;;;;;;;5.15;1.23;;;;;;;10.31;66.90;98474.00;5134643;27;20170;-64
2023/10/13 01:48:38;;;;;;;5.55;1.00;;;;;;;10.37;66.51;98479.72;5132870;27;20118;-63
2023/10/13 01:51:06;;;;;;;5.97;1.42;;;;;;;10.34;66.72;98468.31;5134454;27;20437;-64
2023/10/13 01:53:31;;;;;;;4.50;1.10;;;;;;;10.14;66.60;98430.25;5134958;27;20080;-63
2023/10/13 01:55:57;;;;;;;6.78;1.38;;;;;;;10.38;66.50;98466.19;5133840;27;20338;-64
2023/10/13 01:58:25;;;;;;;5.50;1.25;;;;;;;10.36;66.30;98475.34;5131281;27;20168;-64
2023/10/13 02:00:51;;;;;;;2.08;0.80;;;;;;;10.31;66.51;98478.50;5132441;27;20023;-64
2023/10/13 02:03:17;;;;;;;4.47;1.00;;;;;;;10.19;66.96;98453.81;5134355;27;20035;-64
2023/10/13 02:05:47;;;;;;;10.07;1.27;;;;;;;10.24;66.63;98478.25;5133725;27;20038;-63
2023/10/13 02:08:25;;;;;;;5.35;1.05;;;;;;;10.22;66.89;98474.09;5134367;27;20147;-63
2023/10/13 02:10:53;;;;;;;3.30;0.80;;;;;;;10.17;66.89;98485.22;5134304;27;20049;-65
2023/10/13 02:13:22;;;;;;;4.18;1.00;;;;;;;10.12;67.28;98483.00;5132297;27;20039;-65
2023/10/13 02:15:56;;;;;;;7.68;1.08;;;;;;;10.13;66.82;98482.06;5134103;27;20044;-65
2023/10/13 02:18:27;;;;;;;4.55;1.13;;;;;;;10.01;66.89;98488.63;5132490;27;20422;-63
2023/10/13 02:20:55;;;;;;;4.43;1.00;;;;;;;9.78;67.56;98467.69;5134498;27;20070;-63
2023/10/13 02:23:22;;;;;;;7.03;1.00;;;;;;;9.72;67.80;98487.00;5133944;27;20043;-64
2023/10/13 02:25:52;;;;;;;4.25;1.02;;;;;;;9.36;67.85;98442.38;5133990;27;20079;-64
2023/10/13 02:28:21;;;;;;;7.40;1.30;;;;;;;9.50;67.98;98483.78;5134362;27;20027;-64
2023/10/13 02:30:53;;;;;;;4.30;1.05;;;;;;;9.40;68.36;98496.31;5131249;27;20030;-64
2023/10/13 02:33:21;;;;;;;6.80;1.08;;;;;;;9.32;68.80;98491.75;5131914;27;20027;-65
2023/10/13 02:35:54;;;;;;;7.05;1.52;;;;;;;9.14;68.82;98492.53;5134372;27;20035;-64
2023/10/13 02:38:27;;;;;;;7.95;1.23;;;;;;;9.18;68.89;98519.78;5130625;27;20067;-64
2023/10/13 02:40:54;;;;;;;4.05;1.27;;;;;;;9.18;69.25;98519.78;5133382;27;20389;-64
2023/10/13 02:43:22;;;;;;;6.20;1.45;;;;;;;9.21;68.76;98513.31;5133884;27;20035;-64
2023/10/13 02:46:01;;;;;;;7.75;1.38;;;;;;;9.16;69.10;98500.38;5134354;27;20134;-65
2023/10/13 02:48:39;;;;;;;7.05;1.30;;;;;;;9.24;69.16;98515.66;5134094;27;20101;-63
2023/10/13 02:51:15;;;;;;;6.93;1.20;;;;;;;9.35;68.83;98526.19;5133267;27;20039;-63
2023/10/13 02:53:49;;;;;;;;;;;;;;;9.67;68.02;98513.34;5125853;27;20547;-64
2023/10/13 02:56:22;;;;;;;6.45;1.30;;;;;;;9.54;68.23;98519.06;5113419;28;19915;-63
2023/10/13 02:59:04;;;;;;;4.80;1.15;;;;;;;9.47;68.30;98524.16;5114233;27;20043;-64
2023/10/13 03:01:35;;;;;;;7.15;1.30;;;;;;;9.42;68.09;98524.59;5112460;28;20147;-65
2023/10/13 03:04:08;;;;;;;8.65;1.27;;;;;;;9.39;68.47;98537.38;5114127;28;20114;-64
2023/10/13 03:06:35;;;;;;;6.60;1.10;;;;;;;9.43;68.40;98533.47;5113507;28;20031;-63
2023/10/13 03:09:49;;;;;;;6.00;1.40;;;;;;;9.44;68.41;98540.47;5112888;28;20024;-63
2023/10/13 03:11:59;;;;;;;4.72;1.15;;;;;;;9.54;68.13;98546.59;5110285;28;20066;-64
2023/10/13 03:14:33;;;;;;;6.03;0.95;;;;;;;9.63;68.25;98537.69;5112917;28;20031;-64
2023/10/13 03:17:08;;;;;;;5.70;1.30;;;;;;;9.76;67.74;98547.19;5112998;28;20412;-65
2023/10/13 03:19:36;;;;;;;5.28;1.40;;;;;;;9.79;67.47;98533.50;5130196;27;20030;-65
2023/10/13 03:22:15;;;;;;;5.13;1.70;;;;;;;9.71;67.18;98531.59;5132075;27;20051;-63
2023/10/13 03:24:46;;;;;;;11.63;1.95;;;;;;;9.67;67.09;98542.75;5133537;27;20035;-64
2023/10/13 03:27:17;;;;;;;5.88;1.15;;;;;;;9.51;67.65;98546.03;5133526;27;20023;-65
2023/10/13 03:29:44;;;;;;;5.85;1.20;;;;;;;9.41;67.53;98536.25;5129937;28;20084;-64
2023/10/13 03:32:11;;;;;;;7.78;1.40;;;;;;;9.46;67.72;98554.53;5133045;27;20506;-64
2023/10/13 03:35:12;;;;;;;7.88;1.45;;;;;;;9.51;67.81;98554.91;5133769;27;20058;-64
2023/10/13 03:37:38;;;;;;;7.28;1.08;;;;;;;9.51;67.13;98541.56;5131335;27;20019;-64
2023/10/13 03:40:34;;;;;;;5.60;1.55;;;;;;;9.42;67.33;98547.81;5133203;27;20035;-65
2023/10/13 03:45:39;;;;;;;5.95;1.00;;;;;;;9.29;67.83;98562.31;5132857;27;20135;-64
2023/10/13 03:48:11;;;;;;;6.45;1.30;;;;;;;9.21;68.02;98580.06;5133425;27;20522;-64
2023/10/13 03:50:49;;;;;;;5.03;1.38;;;;;;;9.17;68.27;98582.19;5133107;27;20034;-64
2023/10/13 03:53:15;;;;;;;9.60;1.40;;;;;;;9.08;68.24;98583.91;5131447;27;20084;-65
2023/10/13 03:55:47;;;;;;;7.95;1.67;;;;;;;9.04;68.10;98588.69;5132765;27;20027;-64
2023/10/13 03:58:14;;;;;;;4.30;1.20;;;;;;;9.04;68.19;98586.03;5130041;28;20076;-63
2023/10/13 04:00:42;;;;;;;5.25;1.05;;;;;;;8.66;68.36;98531.72;5133012;27;20031;-62
2023/10/13 04:03:16;;;;;;;5.32;1.35;;;;;;;9.04;68.17;98607.38;5133149;27;20038;-64
2023/10/13 04:05:46;;;;;;;5.15;1.55;;;;;;;9.11;67.73;98609.47;5118894;27;20423;-63
2023/10/13 04:21:42;;;;;;;5.32;1.27;;;;;;;9.36;66.53;98639.19;5136251;27;20051;-64
2023/10/13 04:24:24;;;;;;;6.57;1.20;;;;;;;9.49;66.55;98645.06;5137170;27;20042;-64
2023/10/13 04:27:54;;;;;;;6.20;1.60;;;;;;;9.78;65.69;98652.13;5136229;27;20034;-63
2023/10/13 04:32:38;;;;;;;7.25;1.20;;;;;;;10.17;64.16;98659.09;5132454;27;20062;-64
2023/10/13 04:37:50;;;;;;;5.93;1.30;;;;;;;10.14;63.78;98654.91;5127212;27;20453;-63
2023/10/13 04:40:19;;;;;;;6.30;1.38;;;;;;;10.19;64.19;98671.31;5114899;28;20023;-65
2023/10/13 04:42:50;;;;;;;7.60;1.58;;;;;;;10.07;64.14;98661.81;5116973;27;20114;-63
2023/10/13 04:50:45;;;;;;;8.65;1.60;;;;;;;10.10;63.86;98682.91;5116155;28;20047;-65
2023/10/13 05:02:00;;;;;;;5.30;1.67;;;;;;;13.22;55.47;98701.13;5115728;27;20149;-64
2023/10/13 05:45:40;;;;;;;3.28;1.25;;;;;;;11.87;56.07;98777.94;5114168;28;20031;-63
2023/10/13 05:50:13;;;;;;;4.95;1.30;;;;;;;11.68;57.33;98780.81;5113980;28;20024;-66
2023/10/13 06:30:56;;;;;;;7.75;1.40;;;;;;;13.66;50.25;98844.34;5112924;27;20115;-65
2023/10/13 06:33:28;;;;;;;7.43;1.20;;;;;;;13.82;49.85;98827.34;5102288;27;20034;-63
2023/10/13 06:35:56;;;;;;;5.25;1.10;;;;;;;14.13;48.92;98838.25;5113742;28;20386;-66
2023/10/13 06:38:22;;;;;;;3.63;1.02;;;;;;;15.02;46.95;98850.75;5113781;28;20057;-63
2023/10/13 06:40:50;;;;;;;7.03;1.63;;;;;;;16.88;42.17;98821.69;5113487;28;20035;-64
2023/10/13 06:43:17;;;;;;;6.72;0.98;;;;;;;17.49;39.99;98809.69;5113667;28;20076;-64
2023/10/13 06:46:14;;;;;;;3.05;1.00;;;;;;;18.86;38.62;98851.91;5114751;27;20038;-64
2023/10/13 06:48:34;;;;;;;3.40;1.15;;;;;;;21.13;34.00;98857.59;5113269;28;20032;-64
2023/10/13 06:51:12;;;;;;;3.28;1.20;;;;;;;24.51;28.97;98850.78;5113349;28;20039;-63
2023/10/13 06:53:37;;;;;;;3.05;0.95;;;;;;;27.92;24.23;98850.81;5132771;27;20046;-65
2023/10/13 06:56:07;;;;;;;3.75;0.80;;;;;;;29.50;22.13;98864.88;5134140;27;20051;-64
2023/10/13 06:58:32;;;;;;;4.53;1.00;;;;;;;29.61;21.29;98853.88;5133844;27;20027;-65
2023/10/13 07:00:59;;;;;;;3.25;0.70;;;;;;;30.98;19.66;98866.13;5132507;27;20353;-64
2023/10/13 07:03:25;;;;;;;3.10;0.68;;;;;;;31.46;18.88;98867.56;5132229;27;20039;-65
2023/10/13 07:05:52;;;;;;;4.43;0.90;;;;;;;29.88;19.86;98872.91;5133661;27;20031;-64
2023/10/13 07:08:21;;;;;;;6.47;1.00;;;;;;;28.74;21.00;98874.47;5119626;27;20027;-64
2023/10/13 07:11:02;;;;;;;3.03;0.80;;;;;;;26.69;24.07;98895.84;5114077;27;20114;-65
2023/10/13 07:13:29;;;;;;;2.63;1.00;;;;;;;23.91;26.40;98873.66;5112927;28;20028;-64
2023/10/13 07:16:00;;;;;;;1.75;0.73;;;;;;;21.89;29.04;98882.25;5113090;28;20023;-64
2023/10/13 07:18:26;;;;;;;2.97;1.30;;;;;;;20.58;31.12;98906.91;5113222;28;20400;-65
2023/10/13 07:20:57;;;;;;;2.28;0.80;;;;;;;20.34;31.58;98909.25;5112517;28;20048;-65
2023/10/13 07:23:24;;;;;;;4.10;0.85;;;;;;;20.06;31.48;98904.88;5131152;27;20039;-64
2023/10/13 07:25:55;;;;;;;2.80;1.10;;;;;;;19.21;33.10;98897.97;5134002;27;20072;-64
2023/10/13 07:28:22;;;;;;;4.45;1.20;;;;;;;19.18;32.78;98928.22;5133427;27;20024;-62
2023/10/13 07:33:19;;;;;;;4.43;1.00;;;;;;;20.04;31.44;98925.97;5133203;27;20039;-65
2023/10/13 07:35:50;;;;;;;3.60;0.80;;;;;;;19.98;30.84;98913.19;5126337;27;20102;-65
2023/10/13 07:38:16;;;;;;;2.35;0.85;;;;;;;19.33;31.70;98926.22;5114046;28;20187;-63
2023/10/13 07:40:50;;;;;;;4.28;0.98;;;;;;;18.58;33.37;98942.28;5117064;28;20037;-63
2023/10/13 07:43:21;;;;;;;5.13;0.80;;;;;;;17.89;34.21;98934.59;5116916;28;20039;-64
2023/10/13 07:45:51;;;;;;;6.63;1.00;;;;;;;17.22;35.99;98952.78;5117100;28;20042;-64
2023/10/13 07:48:23;;;;;;;2.53;0.88;;;;;;;16.72;37.14;98939.81;5115768;28;20024;-64
2023/10/13 07:51:03;;;;;;;4.03;0.90;;;;;;;16.64;37.55;98958.84;5117240;27;20032;-65
2023/10/13 07:53:34;;;;;;;2.97;0.88;;;;;;;16.28;37.61;98946.00;5091081;28;20852;-64
2023/10/13 07:56:13;;;;;;;5.45;1.10;;;;;;;16.28;37.49;98954.09;5118360;27;20051;-65
2023/10/13 07:59:00;;;;;;;2.72;0.80;;;;;;;16.47;37.84;98955.44;5116255;28;20118;-65
2023/10/13 08:01:27;;;;;;;5.28;0.80;;;;;;;16.46;37.54;98970.81;5115160;28;20031;-65
2023/10/13 08:04:11;;;;;;;4.38;0.98;;;;;;;16.09;38.29;98966.25;5116385;28;20430;-64
2023/10/13 08:06:40;;;;;;;6.32;0.85;;;;;;;15.72;38.37;98974.06;5116297;28;20058;-65
2023/10/13 08:09:07;;;;;;;4.80;0.82;;;;;;;15.43;38.78;98997.16;5115804;27;20443;-66
2023/10/13 08:11:37;;;;;;;4.68;1.05;;;;;;;15.22;39.69;98990.50;5126817;27;20080;-62
2023/10/13 08:14:11;;;;;;;4.22;0.85;;;;;;;14.99;39.76;98960.75;5135209;27;20039;-64
2023/10/13 08:19:39;;;;;;;4.00;0.90;;;;;;;15.52;39.52;98969.13;5136004;27;20055;-65
2023/10/13 08:45:52;;;;;;;5.05;0.73;;;;;;;16.87;36.41;99052.50;5094802;28;20089;-62
2023/10/13 08:48:12;;;;;;;3.38;0.90;;;;;;;17.04;35.89;99058.66;5093313;28;20342;-63
2023/10/13 09:09:34;;;;;;;3.10;0.85;;;;;;;15.04;37.34;99060.81;5114212;28;20039;-63
2023/10/13 09:12:14;;;;;;;3.55;0.90;;;;;;;15.01;38.09;99090.81;5128449;27;20042;-63
2023/10/13 09:14:44;;;;;;;3.03;0.60;;;;;;;14.73;37.94;99093.88;5135564;27;20091;-63
2023/10/13 09:19:55;;;;;;;4.85;0.60;;;;;;;14.66;38.82;99084.75;5125408;27;20050;-65
2023/10/13 09:22:27;;;;;;;7.70;0.90;;;;;;;14.98;38.50;99102.78;5114508;28;20056;-63
2023/10/13 09:25:00;;;;;;;3.38;1.05;;;;;;;15.25;38.12;99102.56;5114959;28;20035;-63
2023/10/13 09:27:28;;;;;;;7.65;1.10;;;;;;;15.28;37.94;99108.47;5114260;28;20039;-65
2023/10/13 09:30:18;;;;;;;4.20;1.00;;;;;;;15.31;38.39;99100.03;5125959;27;20179;-67
2023/10/13 09:32:50;;;;;;;5.57;1.13;;;;;;;15.33;38.20;99111.47;5115045;27;20103;-63
2023/10/13 09:35:23;;;;;;;3.08;1.00;;;;;;;15.31;38.16;99118.03;5113993;28;20374;-63
2023/10/13 09:37:50;;;;;;;3.75;1.20;;;;;;;15.33;38.43;99121.44;5113691;28;20020;-64
2023/10/13 09:40:38;;;;;;;2.47;0.93;;;;;;;15.49;37.78;99144.84;5114068;28;20114;-64
2023/10/13 09:43:07;;;;;;;4.60;1.05;;;;;;;15.54;37.43;99145.16;5114022;28;20031;-62
2023/10/13 09:45:43;;;;;;;1.83;0.80;;;;;;;15.62;37.07;99134.31;5114346;28;20032;-64
2023/10/13 09:48:21;;;;;;;;;;;;;;;16.14;37.00;99140.19;5115417;27;20020;-65
2023/10/13 09:50:48;;;;;;;3.50;0.70;;;;;;;15.71;36.42;99145.09;5123977;27;19925;-63
2023/10/13 09:53:18;;;;;;;2.88;0.85;;;;;;;15.40;37.07;99144.00;5112828;27;20442;-63
2023/10/13 09:56:14;;;;;;;7.03;1.35;;;;;;;15.53;37.62;99148.84;5093635;28;20020;-62
2023/10/13 09:58:50;;;;;;;;;;;;;;;15.74;37.65;99152.84;5112669;27;20035;-63
2023/10/13 10:01:30;;;;;;;8.55;1.63;;;;;;;15.35;38.19;99154.47;5124800;27;20022;-63
2023/10/13 10:04:18;;;;;;;4.63;1.17;;;;;;;15.22;38.36;99168.47;5109541;28;20062;-63
2023/10/13 10:06:53;;;;;;;2.17;0.80;;;;;;;15.02;38.52;99160.75;5109042;28;20024;-62
2023/10/13 10:09:22;;;;;;;3.97;0.88;;;;;;;14.66;38.56;99161.03;5095800;28;20032;-61
2023/10/13 10:12:07;;;;;;;4.80;1.05;;;;;;;14.58;39.17;99167.22;5107199;28;20042;-64
2023/10/13 10:14:58;;;;;;;2.72;1.08;;;;;;;14.28;39.74;99176.78;5105361;27;20362;-65
2023/10/13 10:17:29;;;;;;;4.72;0.80;;;;;;;14.13;39.37;99168.50;5116971;27;20377;-63
2023/10/13 10:19:56;;;;;;;3.67;0.93;;;;;;;14.11;39.57;99171.34;5114043;28;20058;-65
2023/10/13 10:22:36;;;;;;;2.15;0.82;;;;;;;14.14;39.61;99165.63;5109094;28;20047;-61
2023/10/13 10:25:06;;;;;;;2.22;1.00;;;;;;;14.16;39.44;99189.72;5098764;28;20482;-61
2023/10/13 10:27:34;;;;;;;6.18;1.02;;;;;;;14.14;39.34;99186.34;5095800;28;20415;-60
2023/10/13 10:30:03;;;;;;;4.15;0.98;;;;;;;13.95;39.01;99152.44;5109595;27;20434;-62
2023/10/13 10:32:40;;;;;;;3.97;0.68;;;;;;;14.09;39.43;99169.81;5128321;27;20077;-62
2023/10/13 10:35:20;;;;;;;3.70;1.00;;;;;;;14.29;39.20;99187.38;5119309;27;20023;-62
2023/10/13 10:37:49;;;;;;;4.75;0.88;;;;;;;14.23;38.99;99192.56;5098633;28;20030;-63
2023/10/13 10:43:17;;;;;;;2.42;0.60;;;;;;;13.82;38.62;99164.50;5078966;28;20048;-69
2023/10/13 10:45:49;;;;;;;1.88;0.70;;;;;;;14.00;39.09;99198.56;5091524;28;20028;-67
2023/10/13 10:48:18;;;;;;;3.78;0.95;;;;;;;13.95;38.74;99203.56;5114318;27;20067;-65
2023/10/13 10:50:53;;;;;;;2.10;0.85;;;;;;;13.95;38.78;99200.88;5114154;27;20053;-67
2023/10/13 10:53:22;;;;;;;1.92;0.50;;;;;;;13.96;38.46;99216.00;5112727;28;20037;-67
2023/10/13 10:55:49;;;;;;;2.95;0.50;;;;;;;13.90;38.68;99201.38;5114037;27;20111;-66
2023/10/13 10:58:28;;;;;;;4.80;1.00;;;;;;;14.00;38.82;99214.72;5113187;28;20035;-67
2023/10/13 11:01:20;;;;;;;2.90;0.80;;;;;;;14.15;38.54;99226.53;5112258;28;20028;-68
2023/10/13 11:03:58;;;;;;;1.77;0.80;;;;;;;14.24;38.40;99224.72;5113850;28;20077;-67
2023/10/13 11:06:27;;;;;;;1.77;0.75;;;;;;;14.17;37.87;99243.38;5113271;28;20039;-66
2023/10/13 11:09:03;;;;;;;3.50;0.90;;;;;;;14.11;38.72;99246.72;5111804;28;20140;-67
2023/10/13 11:11:35;;;;;;;2.95;0.70;;;;;;;14.05;37.99;99236.59;5112840;28;20027;-66
2023/10/13 11:14:22;;;;;;;4.43;0.70;;;;;;;13.92;38.59;99237.03;5112473;28;20038;-66
2023/10/13 11:17:41;;;;;;;6.03;0.63;;;;;;;13.93;39.01;99241.41;5117033;27;20024;-66
2023/10/13 11:19:35;;;;;;;3.05;0.80;;;;;;;13.98;38.24;99240.91;5121070;27;20039;-66
2023/10/13 11:22:35;;;;;;;2.65;0.73;;;;;;;13.94;38.63;99237.72;5133230;27;20073;-67
2023/10/13 11:25:11;;;;;;;3.15;0.80;;;;;;;13.84;37.77;99247.75;5077541;28;20442;-66
2023/10/13 11:33:05;;;;;;;3.92;0.57;;;;;;;13.78;38.37;99257.31;5092321;28;20020;-63
2023/10/13 11:38:27;;;;;;;2.08;0.65;;;;;;;13.80;39.11;99265.22;5111852;28;20039;-64
2023/10/13 11:41:14;;;;;;;4.05;0.98;;;;;;;13.79;38.87;99267.06;5112993;28;20035;-67
2023/10/13 11:46:16;;;;;;;2.22;0.60;;;;;;;13.63;38.49;99268.63;5097221;28;20107;-64
2023/10/13 11:48:44;;;;;;;2.08;0.82;;;;;;;13.54;38.44;99283.03;5092046;28;20107;-66
2023/10/13 11:51:32;;;;;;;2.83;0.50;;;;;;;13.35;38.95;99279.50;5091889;28;20090;-67
2023/10/13 11:53:58;;;;;;;5.32;0.70;;;;;;;13.29;38.88;99285.50;5102649;28;20046;-64
2023/10/13 11:56:24;;;;;;;1.33;0.50;;;;;;;13.25;39.06;99288.66;5103891;28;20446;-63
2023/10/13 11:58:51;;;;;;;3.65;0.80;;;;;;;13.21;39.11;99288.09;5107273;27;20031;-65
2023/10/13 12:11:54;;;;;;;3.90;0.77;;;;;;;13.28;39.49;99283.81;5112120;28;20046;-65
2023/10/13 12:14:21;;;;;;;6.05;1.02;;;;;;;13.33;39.34;99289.56;5107460;28;20024;-62
2023/10/13 12:16:51;;;;;;;5.13;1.00;;;;;;;13.31;39.90;99294.25;5116106;28;20074;-65
2023/10/13 12:19:18;;;;;;;5.97;1.08;;;;;;;13.23;39.95;99280.72;5130805;27;20054;-61
2023/10/13 12:21:43;;;;;;;5.88;1.30;;;;;;;13.31;39.70;99272.75;5132346;27;20051;-64
2023/10/13 12:24:22;;;;;;;4.68;1.10;;;;;;;13.38;39.77;99285.56;5122293;28;20119;-63
2023/10/13 12:26:55;;;;;;;5.35;1.05;;;;;;;13.40;40.00;99291.63;5096599;28;20215;-63
2023/10/13 12:29:23;;;;;;;4.00;0.90;;;;;;;13.42;39.92;99292.31;5099591;28;20028;-62
2023/10/13 12:32:05;;;;;;;4.55;1.17;;;;;;;13.33;39.71;99281.50;5101996;27;20485;-65
2023/10/13 12:38:04;;;;;;;3.33;0.80;;;;;;;13.39;39.59;99282.72;5115823;28;20357;-63
2023/10/13 12:51:19;;;;;;;1.92;0.70;;;;;;;13.15;39.80;99300.34;5115608;27;20047;-67
2023/10/13 12:53:49;;;;;;;3.42;0.80;;;;;;;13.14;39.53;99306.72;5114764;28;20030;-64
2023/10/13 12:56:16;;;;;;;3.92;0.88;;;;;;;13.03;39.68;99315.84;5113442;28;20036;-66
2023/10/13 12:58:48;;;;;;;5.75;1.15;;;;;;;13.02;40.09;99311.47;5112464;28;20032;-65
2023/10/13 13:01:20;;;;;;;2.63;0.68;;;;;;;13.00;40.45;99310.75;5113441;28;20027;-66
2023/10/13 13:03:46;;;;;;;4.78;1.00;;;;;;;12.95;40.39;99329.16;5113198;28;20024;-66
2023/10/13 13:06:24;;;;;;;3.42;0.80;;;;;;;13.02;40.44;99324.91;5113337;28;20087;-66
2023/10/13 13:08:58;;;;;;;2.45;0.80;;;;;;;12.96;40.44;99330.84;5112779;28;20101;-65
2023/10/13 13:11:24;;;;;;;5.07;1.10;;;;;;;12.80;40.97;99330.69;5113632;28;20023;-66
2023/10/13 13:13:51;;;;;;;3.75;1.00;;;;;;;12.81;40.97;99327.84;5115156;28;20032;-66
2023/10/13 13:16:19;;;;;;;4.70;1.20;;;;;;;12.75;41.22;99331.16;5115153;28;20028;-65
2023/10/13 13:18:45;;;;;;;3.90;0.98;;;;;;;12.70;42.20;99336.13;5114033;28;20024;-65
2023/10/13 13:21:21;;;;;;;5.07;0.90;;;;;;;12.62;42.18;99331.50;5115016;28;20055;-66
2023/10/13 13:23:47;;;;;;;6.57;1.10;;;;;;;12.46;42.20;99307.97;5081501;28;20031;-66
2023/10/13 13:26:15;;;;;;;5.85;1.48;;;;;;;12.59;42.44;99337.16;5115062;28;20033;-66
2023/10/13 13:28:42;;;;;;;3.85;1.25;;;;;;;12.53;42.87;99348.47;5114751;28;20034;-66
2023/10/13 13:31:08;;;;;;;8.55;1.00;;;;;;;12.48;42.77;99341.72;5115225;28;20118;-67
2023/10/13 13:33:38;;;;;;;2.53;0.80;;;;;;;12.42;42.73;99347.69;5114898;28;20031;-66
2023/10/13 13:36:06;;;;;;;6.63;1.15;;;;;;;12.47;42.87;99329.28;5113475;28;20023;-66
2023/10/13 13:38:33;;;;;;;4.15;0.88;;;;;;;12.37;43.03;99349.97;5114674;28;20102;-65
2023/10/13 13:41:01;;;;;;;4.50;0.98;;;;;;;12.23;43.05;99337.03;5114550;28;20027;-67
2023/10/13 13:46:24;;;;;;;4.93;0.90;;;;;;;12.19;43.25;99356.09;5098313;28;20044;-66
2023/10/13 13:48:51;;;;;;;4.13;0.80;;;;;;;12.16;43.53;99363.59;5114208;28;20073;-66
2023/10/13 13:51:26;;;;;;;4.55;1.10;;;;;;;12.01;43.84;99352.47;5114620;28;20027;-64
2023/10/13 13:53:52;;;;;;;4.03;1.20;;;;;;;12.04;43.95;99370.97;5114419;28;20106;-67
2023/10/13 13:56:19;;;;;;;5.60;1.00;;;;;;;12.02;44.21;99373.81;5113680;28;20020;-64
2023/10/13 13:58:45;;;;;;;2.67;0.98;;;;;;;11.95;44.09;99378.03;5114219;28;20046;-65
2023/10/13 14:01:29;;;;;;;7.32;1.10;;;;;;;11.96;44.16;99374.38;5113644;28;20114;-67
2023/10/13 14:04:02;;;;;;;2.92;1.17;;;;;;;11.85;44.26;99377.19;5112863;28;20059;-64
2023/10/13 14:06:29;;;;;;;6.15;1.25;;;;;;;11.80;44.44;99400.91;5114191;28;20101;-66
2023/10/13 14:08:56;;;;;;;3.13;1.08;;;;;;;11.74;44.75;99391.59;5114177;28;20139;-66
2023/10/13 14:14:12;;;;;;;2.90;1.30;;;;;;;11.58;44.85;99395.72;5113655;28;20030;-66
2023/10/13 14:16:47;;;;;;;10.00;1.70;;;;;;;11.58;45.01;99403.75;5114343;28;20177;-65
2023/10/13 14:19:29;;;;;;;5.70;1.38;;;;;;;11.48;45.63;99411.78;5114214;28;20051;-64
2023/10/13 14:21:55;;;;;;;6.88;1.48;;;;;;;11.32;45.80;99417.69;5113483;27;20048;-65
2023/10/13 14:24:28;;;;;;;5.90;1.40;;;;;;;11.24;46.16;99414.03;5113345;28;20492;-65
2023/10/13 14:27:07;;;;;;;8.63;1.50;;;;;;;11.13;46.63;99412.31;5114032;28;20044;-66
2023/10/13 14:29:34;;;;;;;6.47;1.40;;;;;;;11.06;46.30;99428.91;5096182;28;20039;-66
2023/10/13 14:31:59;;;;;;;3.85;1.50;;;;;;;10.96;46.65;99421.81;5113824;28;20035;-65
2023/10/13 14:34:26;;;;;;;6.40;1.45;;;;;;;10.72;46.99;99389.06;5112544;28;20366;-66
2023/10/13 14:36:54;;;;;;;6.35;1.75;;;;;;;10.92;47.33;99445.38;5113857;28;20023;-65
2023/10/13 14:39:20;;;;;;;7.00;1.88;;;;;;;10.82;47.23;99452.50;5113027;28;20095;-67
2023/10/13 14:41:47;;;;;;;7.28;1.73;;;;;;;10.76;47.77;99449.41;5111814;28;20362;-66
2023/10/13 14:44:16;;;;;;;4.88;1.63;;;;;;;10.70;48.26;99446.41;5113225;28;20027;-64
2023/10/13 14:46:42;;;;;;;5.35;1.83;;;;;;;10.65;48.42;99457.53;5113385;28;20080;-66
2023/10/13 14:49:07;;;;;;;5.45;1.65;;;;;;;10.61;48.68;99453.44;5113592;28;20035;-65
2023/10/13 14:51:33;;;;;;;8.98;1.60;;;;;;;10.57;48.72;99451.97;5113048;28;20456;-63
2023/10/13 14:53:59;;;;;;;6.65;1.65;;;;;;;10.55;48.49;99453.94;5112672;28;20157;-65
2023/10/13 14:56:27;;;;;;;6.03;2.03;;;;;;;10.52;48.78;99462.25;5113000;28;20092;-66
2023/10/13 14:58:53;;;;;;;4.78;1.60;;;;;;;10.51;48.95;99469.44;5113381;28;20027;-68
2023/10/13 15:01:21;;;;;;;4.20;1.55;;;;;;;10.50;49.00;99485.63;5113129;28;20116;-68
2023/10/13 15:03:58;;;;;;;14.45;2.33;;;;;;;10.41;49.44;99477.41;5112777;28;20087;-65
2023/10/13 15:06:25;;;;;;;3.70;1.50;;;;;;;10.38;49.53;99487.47;5113408;28;20488;-65
2023/10/13 15:08:54;;;;;;;4.47;1.85;;;;;;;10.29;49.81;99487.28;5112863;28;20027;-65
2023/10/13 15:11:27;;;;;;;5.05;1.58;;;;;;;10.14;50.21;99473.41;5112274;28;20042;-65
2023/10/13 15:13:56;;;;;;;7.22;1.85;;;;;;;10.17;50.29;99483.84;5112473;28;20135;-67
2023/10/13 15:16:24;;;;;;;5.45;1.67;;;;;;;10.10;50.32;99493.34;5112746;28;20119;-69
2023/10/13 15:18:52;;;;;;;6.72;1.70;;;;;;;10.02;50.81;99490.47;5112829;28;20172;-66
2023/10/13 15:21:28;;;;;;;4.65;1.55;;;;;;;10.09;50.75;99490.81;5112670;28;20132;-66
2023/10/13 15:23:59;;;;;;;6.35;1.85;;;;;;;9.98;51.28;99499.72;5112134;28;20419;-65
2023/10/13 15:26:25;;;;;;;5.88;1.70;;;;;;;9.86;50.83;99491.72;5108447;28;20373;-71
2023/10/13 15:28:55;;;;;;;5.28;1.52;;;;;;;9.87;51.25;99498.78;5112505;28;20036;-68
2023/10/13 15:31:22;;;;;;;3.08;1.30;;;;;;;9.84;51.27;99508.91;5119561;28;20430;-66
2023/10/13 15:33:54;;;;;;;6.45;1.80;;;;;;;9.89;51.46;99514.72;5112114;28;20054;-67